createdAt,value
2019-03-12T00:02:22.660Z,29.10
2019-03-12T00:05:17.849Z,29.10
2019-03-12T00:08:12.907Z,29.10
2019-03-12T00:11:08.131Z,29.10
2019-03-12T00:14:02.995Z,29.20
2019-03-12T00:17:00.014Z,29.20
2019-03-12T00:19:55.100Z,29.20
2019-03-12T00:22:51.406Z,29.20
2019-03-12T00:25:46.017Z,29.20
2019-03-12T00:28:41.701Z,29.20
2019-03-12T00:31:36.640Z,29.20
2019-03-12T00:34:31.603Z,29.20
2019-03-12T00:37:26.424Z,29.20
2019-03-12T00:40:21.120Z,29.20
2019-03-12T00:43:16.317Z,29.20
2019-03-12T00:46:11.686Z,29.10
2019-03-12T00:49:06.138Z,29.20
2019-03-12T00:52:01.126Z,29.10
2019-03-12T00:54:55.975Z,29.20
2019-03-12T00:57:51.055Z,29.10
2019-03-12T01:00:46.026Z,29.10
2019-03-12T01:03:41.052Z,29.10
2019-03-12T01:06:35.950Z,29.10
2019-03-12T01:09:30.555Z,29.10
2019-03-12T01:12:25.567Z,29.10
2019-03-12T01:15:20.727Z,29.10
2019-03-12T01:18:15.953Z,29.10
2019-03-12T01:21:10.559Z,29.10
2019-03-12T01:24:05.674Z,29.20
2019-03-12T01:27:01.101Z,29.20
2019-03-12T01:29:55.922Z,29.10
2019-03-12T01:32:51.220Z,29.20
2019-03-12T01:35:46.151Z,29.20
2019-03-12T01:38:41.226Z,29.20
2019-03-12T01:41:36.715Z,29.20
2019-03-12T01:44:33.115Z,29.20
2019-03-12T01:47:28.340Z,29.20
2019-03-12T01:50:23.148Z,29.20
2019-03-12T01:53:18.475Z,29.30
2019-03-12T01:56:14.030Z,29.20
2019-03-12T01:59:09.173Z,29.30
2019-03-12T02:02:04.447Z,29.30
2019-03-12T02:04:59.453Z,29.30
2019-03-12T02:07:54.806Z,29.30
2019-03-12T02:10:51.619Z,29.30
2019-03-12T02:13:46.661Z,29.40
2019-03-12T02:16:44.398Z,29.40
2019-03-12T02:19:39.423Z,29.40
2019-03-12T02:22:35.654Z,29.40
2019-03-12T02:25:30.585Z,29.40
2019-03-12T02:28:25.961Z,29.50
2019-03-12T02:31:21.035Z,29.50
2019-03-12T02:34:16.099Z,29.50
2019-03-12T02:37:11.600Z,29.50
2019-03-12T02:40:06.530Z,29.50
2019-03-12T02:43:01.275Z,29.60
2019-03-12T02:45:56.457Z,29.60
2019-03-12T02:48:51.482Z,29.60
2019-03-12T02:51:46.365Z,29.60
2019-03-12T02:54:40.994Z,29.60
2019-03-12T02:57:36.063Z,29.70
2019-03-12T03:00:31.214Z,29.70
2019-03-12T03:03:26.227Z,29.70
2019-03-12T03:06:44.948Z,29.70
2019-03-12T03:09:39.629Z,29.70
2019-03-12T03:12:35.246Z,29.70
2019-03-12T03:15:32.926Z,29.70
2019-03-12T03:18:28.257Z,29.80
2019-03-12T03:21:23.532Z,29.80
2019-03-12T03:24:18.431Z,29.80
2019-03-12T03:27:13.569Z,29.90
2019-03-12T03:30:09.874Z,29.90
2019-03-12T03:33:05.065Z,29.90
2019-03-12T03:36:00.102Z,29.90
2019-03-12T03:38:55.093Z,30.00
2019-03-12T03:41:51.336Z,30.00
2019-03-12T03:44:46.542Z,30.00
2019-03-12T03:47:41.361Z,30.10
2019-03-12T03:50:36.348Z,30.10
2019-03-12T03:53:31.367Z,30.10
2019-03-12T03:56:27.224Z,30.20
2019-03-12T03:59:22.281Z,30.20
2019-03-12T04:02:17.451Z,30.30
2019-03-12T04:05:12.701Z,30.30
2019-03-12T04:08:07.985Z,30.30
2019-03-12T04:11:03.151Z,30.40
2019-03-12T04:13:58.994Z,30.50
2019-03-12T04:16:54.243Z,30.50
2019-03-12T04:19:48.873Z,30.60
2019-03-12T04:22:43.595Z,30.60
2019-03-12T04:25:38.815Z,30.70
2019-03-12T04:28:33.751Z,30.70
2019-03-12T04:31:28.681Z,30.80
2019-03-12T04:34:26.278Z,30.90
2019-03-12T04:37:22.092Z,30.90
2019-03-12T04:40:17.693Z,30.90
2019-03-12T04:43:13.129Z,31.00
2019-03-12T04:46:08.058Z,31.00
2019-03-12T04:49:03.032Z,31.10
2019-03-12T04:52:02.440Z,31.10
2019-03-12T04:55:03.713Z,31.20
2019-03-12T04:57:56.120Z,31.30
2019-03-12T05:01:18.431Z,31.40
2019-03-12T05:04:42.008Z,31.40
2019-03-12T05:07:51.164Z,31.50
2019-03-12T05:10:51.092Z,31.60
2019-03-12T05:14:21.703Z,31.70
2019-03-12T05:17:43.274Z,31.80
2019-03-12T05:20:58.747Z,31.90
2019-03-12T05:23:51.258Z,31.90
2019-03-12T05:26:53.094Z,32.00
2019-03-12T05:29:57.279Z,32.10
2019-03-12T05:32:57.594Z,32.20
2019-03-12T05:35:59.548Z,32.30
2019-03-12T05:38:59.568Z,32.40
2019-03-12T05:44:57.524Z,32.50
2019-03-12T05:47:52.739Z,32.50
2019-03-12T05:50:48.511Z,32.60
2019-03-12T05:53:59.138Z,32.60
2019-03-12T05:56:57.400Z,32.70
2019-03-12T05:59:54.671Z,32.70
2019-03-12T06:02:53.051Z,32.80
2019-03-12T06:05:51.525Z,32.90
2019-03-12T06:08:48.461Z,33.00
2019-03-12T06:12:06.818Z,33.10
2019-03-12T06:15:07.019Z,33.10
2019-03-12T06:18:13.462Z,33.20
2019-03-12T06:21:15.248Z,33.20
2019-03-12T06:24:30.887Z,33.30
2019-03-12T06:27:30.584Z,33.30
2019-03-12T06:30:26.718Z,33.40
2019-03-12T06:33:27.795Z,33.40
2019-03-12T06:36:41.220Z,33.50
2019-03-12T06:44:16.894Z,33.70
2019-03-12T06:47:46.364Z,33.80
2019-03-12T06:51:18.555Z,33.80
2019-03-12T06:54:34.753Z,33.80
2019-03-12T06:57:40.730Z,33.90
2019-03-12T07:00:53.864Z,33.90
2019-03-12T07:03:59.343Z,34.00
2019-03-12T07:07:18.850Z,34.10
2019-03-12T07:10:44.669Z,34.20
2019-03-12T07:14:05.546Z,34.40
2019-03-12T07:17:05.627Z,34.60
2019-03-12T07:20:38.298Z,34.70
2019-03-12T07:23:49.291Z,34.90
2019-03-12T07:27:04.181Z,34.90
2019-03-12T07:30:24.516Z,34.80
2019-03-12T07:33:43.694Z,34.80
2019-03-12T07:36:52.172Z,34.70
2019-03-12T07:40:11.780Z,34.70
2019-03-12T07:43:25.122Z,34.60
2019-03-12T07:46:42.935Z,34.50
2019-03-12T07:50:18.499Z,34.50
2019-03-12T07:53:58.630Z,34.40
2019-03-12T07:57:15.077Z,34.40
2019-03-12T08:00:33.794Z,34.40
2019-03-12T08:03:41.796Z,34.40
2019-03-12T08:06:56.113Z,34.30
2019-03-12T08:10:18.983Z,34.30
2019-03-12T08:13:28.725Z,34.40
2019-03-12T08:16:57.475Z,34.40
2019-03-12T08:23:28.722Z,34.40
2019-03-12T08:26:44.853Z,34.30
2019-03-12T08:30:04.602Z,34.30
2019-03-12T08:33:28.809Z,34.30
2019-03-12T08:36:50.695Z,34.30
2019-03-12T08:40:12.984Z,34.20
2019-03-12T08:43:31.862Z,34.20
2019-03-12T08:46:49.271Z,34.20
2019-03-12T08:50:09.658Z,34.30
2019-03-12T08:53:25.486Z,34.40
2019-03-12T08:56:34.625Z,34.40
2019-03-12T08:59:51.019Z,34.60
2019-03-12T09:03:16.673Z,34.70
2019-03-12T09:06:29.525Z,34.80
2019-03-12T09:09:31.685Z,34.80
2019-03-12T09:12:44.840Z,34.80
2019-03-12T09:15:54.965Z,34.80
2019-03-12T09:19:01.179Z,34.70
2019-03-12T09:22:25.643Z,34.80
2019-03-12T09:25:48.579Z,34.80
2019-03-12T09:29:09.747Z,34.80
2019-03-12T09:32:17.893Z,34.70
2019-03-12T09:35:32.824Z,34.60
2019-03-12T09:38:47.671Z,34.60
2019-03-12T09:42:00.168Z,34.60
2019-03-12T09:45:15.870Z,34.60
2019-03-12T09:48:19.600Z,34.60
2019-03-12T09:51:36.182Z,34.60
2019-03-12T09:54:50.442Z,34.80
2019-03-12T09:57:53.153Z,35.10
2019-03-12T10:01:09.521Z,35.20
2019-03-12T10:04:22.345Z,35.20
2019-03-12T10:07:43.133Z,35.20
2019-03-12T10:10:50.277Z,35.10
2019-03-12T10:14:12.452Z,35.00
2019-03-12T10:17:46.295Z,34.90
2019-03-12T10:20:53.055Z,34.80
2019-03-12T10:24:10.761Z,34.70
2019-03-12T10:27:27.289Z,34.60
2019-03-12T10:30:42.109Z,34.50
2019-03-12T10:33:54.425Z,34.40
2019-03-12T10:37:11.810Z,34.30
2019-03-12T10:40:25.438Z,34.20
2019-03-12T10:51:00.754Z,32.10
2019-03-12T10:53:57.034Z,31.40
2019-03-12T10:56:52.408Z,30.60
2019-03-12T11:00:08.120Z,30.10
2019-03-12T11:03:09.465Z,29.70
2019-03-12T11:06:09.321Z,29.40
2019-03-12T11:09:08.955Z,29.40
2019-03-12T11:12:08.030Z,29.40
2019-03-12T11:15:12.258Z,29.40
2019-03-12T11:18:10.887Z,29.50
2019-03-12T11:21:07.531Z,29.50
2019-03-12T11:24:03.287Z,29.70
2019-03-12T11:26:59.629Z,29.80
2019-03-12T11:29:55.345Z,29.90
2019-03-12T11:32:50.352Z,30.00
2019-03-12T11:35:45.907Z,30.10
2019-03-12T11:38:41.651Z,30.20
2019-03-12T11:41:40.342Z,30.30
2019-03-12T11:44:39.978Z,30.40
2019-03-12T11:47:35.365Z,30.40
2019-03-12T11:50:31.085Z,30.50
2019-03-12T11:53:26.816Z,30.50
2019-03-12T11:56:22.606Z,30.50
2019-03-12T11:59:24.256Z,30.60
2019-03-12T12:02:23.649Z,30.60
2019-03-12T12:05:21.082Z,30.60
2019-03-12T12:08:17.055Z,30.70
2019-03-12T12:11:14.963Z,30.70
2019-03-12T12:14:12.070Z,30.70
2019-03-12T12:17:07.960Z,30.70
2019-03-12T12:20:06.170Z,30.70
2019-03-12T12:23:12.749Z,30.70
2019-03-12T12:26:08.014Z,30.80
2019-03-12T12:29:03.973Z,30.80
2019-03-12T12:31:59.793Z,30.70
2019-03-12T12:34:55.377Z,30.70
2019-03-12T12:37:51.004Z,30.70
2019-03-12T12:40:46.281Z,30.70
2019-03-12T12:43:41.478Z,30.70
2019-03-12T12:46:36.776Z,30.70
2019-03-12T12:49:32.475Z,30.60
2019-03-12T12:52:28.369Z,30.60
2019-03-12T12:55:24.078Z,30.60
2019-03-12T12:58:19.824Z,30.60
2019-03-12T13:01:15.933Z,30.60
2019-03-12T13:04:11.360Z,30.60
2019-03-12T13:07:07.202Z,30.50
2019-03-12T13:10:02.491Z,30.50
2019-03-12T13:12:58.410Z,30.50
2019-03-12T13:15:53.658Z,30.50
2019-03-12T13:18:48.889Z,30.50
2019-03-12T13:21:44.133Z,30.50
2019-03-12T13:24:41.624Z,30.50
2019-03-12T13:27:42.102Z,30.50
2019-03-12T13:30:32.463Z,30.50
2019-03-12T13:33:27.971Z,30.40
2019-03-12T13:36:23.068Z,30.40
2019-03-12T13:39:18.678Z,30.40
2019-03-12T13:42:13.594Z,30.40
2019-03-12T13:45:09.289Z,30.40
2019-03-12T13:48:04.698Z,30.50
2019-03-12T13:50:59.950Z,30.50
2019-03-12T13:53:55.471Z,30.50
2019-03-12T13:56:50.990Z,30.50
2019-03-12T13:59:46.443Z,30.40
2019-03-12T14:02:44.874Z,30.40
2019-03-12T14:05:39.689Z,30.40
2019-03-12T14:08:34.902Z,30.40
2019-03-12T14:11:30.343Z,30.40
2019-03-12T14:14:25.570Z,30.30
2019-03-12T14:17:21.039Z,30.30
2019-03-12T14:20:46.049Z,30.30
2019-03-12T14:23:47.084Z,30.30
2019-03-12T14:26:42.595Z,30.30
2019-03-12T14:29:38.021Z,30.30
2019-03-12T14:32:34.483Z,30.30
2019-03-12T14:35:29.914Z,30.30
2019-03-12T14:38:25.529Z,30.20
2019-03-12T14:41:21.240Z,30.20
2019-03-12T14:44:17.722Z,30.20
2019-03-12T14:47:13.932Z,30.20
2019-03-12T14:50:10.082Z,30.20
2019-03-12T14:53:21.049Z,30.20
2019-03-12T14:56:05.358Z,30.20
2019-03-12T14:59:00.398Z,30.20
2019-03-12T15:01:56.490Z,30.10
2019-03-12T15:04:52.244Z,30.10
2019-03-12T15:07:48.321Z,30.10
2019-03-12T15:10:43.723Z,30.10
2019-03-12T15:13:39.411Z,30.00
2019-03-12T15:16:34.846Z,30.00
2019-03-12T15:19:30.333Z,30.00
2019-03-12T15:22:25.546Z,30.00
2019-03-12T15:25:20.968Z,30.00
2019-03-12T15:28:16.382Z,29.90
2019-03-12T15:31:12.110Z,29.90
2019-03-12T15:34:07.285Z,29.90
2019-03-12T15:37:02.614Z,29.90
2019-03-12T15:39:58.175Z,29.90
2019-03-12T15:42:53.888Z,29.80
2019-03-12T15:45:49.878Z,29.90
2019-03-12T15:48:45.095Z,29.90
2019-03-12T15:51:40.405Z,29.80
2019-03-12T15:54:35.936Z,29.80
2019-03-12T15:57:31.202Z,29.80
2019-03-12T16:00:26.332Z,29.80
2019-03-12T16:03:21.916Z,29.80
2019-03-12T16:06:17.963Z,29.80
2019-03-12T16:09:14.049Z,29.80
2019-03-12T16:12:09.868Z,29.70
2019-03-12T16:15:04.956Z,29.70
2019-03-12T16:18:00.495Z,29.70
2019-03-12T16:20:55.738Z,29.70
2019-03-12T16:23:52.733Z,29.70
2019-03-12T16:26:47.631Z,29.60
2019-03-12T16:29:43.327Z,29.60
2019-03-12T16:32:38.624Z,29.60
2019-03-12T16:35:33.542Z,29.60
2019-03-12T16:38:30.466Z,29.60
2019-03-12T16:41:25.827Z,29.50
2019-03-12T16:44:21.737Z,29.50
2019-03-12T16:47:16.458Z,29.50
2019-03-12T16:50:12.017Z,29.50
2019-03-12T16:53:07.021Z,29.40
2019-03-12T16:56:02.391Z,29.40
2019-03-12T16:58:57.521Z,29.40
2019-03-12T17:01:52.183Z,29.40
2019-03-12T17:04:47.323Z,29.40
2019-03-12T17:07:42.904Z,29.40
2019-03-12T17:10:38.002Z,29.40
2019-03-12T17:13:33.236Z,29.40
2019-03-12T17:16:28.544Z,29.30
2019-03-12T17:19:23.869Z,29.30
2019-03-12T17:22:19.172Z,29.30
2019-03-12T17:25:15.593Z,29.30
2019-03-12T17:28:10.817Z,29.20
2019-03-12T17:31:06.533Z,29.20
2019-03-12T17:34:01.523Z,29.20
2019-03-12T17:36:56.450Z,29.10
2019-03-12T17:39:51.498Z,29.10
2019-03-12T17:42:46.781Z,29.10
2019-03-12T17:45:42.766Z,29.10
2019-03-12T17:48:38.422Z,29.00
2019-03-12T17:51:34.387Z,29.00
2019-03-12T17:54:31.978Z,29.00
2019-03-12T17:57:25.621Z,28.90
2019-03-12T18:00:23.136Z,28.90
2019-03-12T18:03:18.594Z,28.90
2019-03-12T18:06:13.636Z,28.90
2019-03-12T18:09:09.898Z,28.90
2019-03-12T18:12:05.504Z,28.90
2019-03-12T18:15:00.807Z,28.80
2019-03-12T18:17:56.284Z,28.80
2019-03-12T18:20:51.369Z,28.80
2019-03-12T18:23:46.680Z,28.80
2019-03-12T18:26:42.627Z,28.80
2019-03-12T18:29:38.432Z,28.70
2019-03-12T18:32:33.520Z,28.70
2019-03-12T18:35:28.887Z,28.70
2019-03-12T18:38:24.297Z,28.70
2019-03-12T18:41:19.411Z,28.60
2019-03-12T18:44:14.728Z,28.60
2019-03-12T18:47:09.970Z,28.60
2019-03-12T18:50:05.622Z,28.60
2019-03-12T18:53:00.997Z,28.60
2019-03-12T18:56:06.287Z,28.60
2019-03-12T18:59:01.755Z,28.60
2019-03-12T19:01:57.207Z,28.50
2019-03-12T19:04:53.032Z,28.50
2019-03-12T19:07:48.550Z,28.50
2019-03-12T19:10:43.727Z,28.50
2019-03-12T19:13:39.038Z,28.50
2019-03-12T19:16:34.872Z,28.50
2019-03-12T19:19:30.481Z,28.40
2019-03-12T19:22:25.542Z,28.40
2019-03-12T19:25:20.597Z,28.40
2019-03-12T19:28:15.536Z,28.40
2019-03-12T19:31:32.197Z,28.40
2019-03-12T19:34:35.707Z,28.40
2019-03-12T19:37:30.892Z,28.40
2019-03-12T19:40:26.546Z,28.30
2019-03-12T19:43:21.343Z,28.30
2019-03-12T19:46:16.662Z,28.30
2019-03-12T19:49:12.054Z,28.30
2019-03-12T19:52:07.601Z,28.20
2019-03-12T19:55:02.664Z,28.20
2019-03-12T19:57:58.217Z,28.20
2019-03-12T20:00:53.392Z,28.20
2019-03-12T20:03:48.904Z,28.10
2019-03-12T20:06:44.120Z,28.10
2019-03-12T20:10:18.554Z,28.10
2019-03-12T20:13:50.906Z,28.10
2019-03-12T20:17:19.612Z,28.10
2019-03-12T20:20:58.344Z,28.00
2019-03-12T20:24:49.058Z,28.00
2019-03-12T20:28:17.472Z,28.00
2019-03-12T20:32:15.955Z,27.90
2019-03-12T20:35:59.335Z,27.90
2019-03-12T20:39:38.734Z,27.90
2019-03-12T20:43:08.691Z,27.90
2019-03-12T20:46:44.163Z,27.90
2019-03-12T20:50:29.924Z,27.90
2019-03-12T20:54:01.108Z,27.90
2019-03-12T20:57:29.436Z,27.80
2019-03-12T21:01:05.209Z,27.80
2019-03-12T21:04:23.687Z,27.80
2019-03-12T21:08:22.038Z,27.70
2019-03-12T21:12:04.069Z,27.70
2019-03-12T21:15:34.482Z,27.70
2019-03-12T21:18:54.384Z,27.60
2019-03-12T21:22:20.906Z,27.60
2019-03-12T21:25:52.482Z,27.60
2019-03-12T21:29:22.192Z,27.60
2019-03-12T21:32:18.126Z,27.60
2019-03-12T21:35:12.919Z,27.60
2019-03-12T21:38:07.987Z,27.60
2019-03-12T21:41:02.773Z,27.60
2019-03-12T21:43:57.605Z,27.60
2019-03-12T21:46:52.916Z,27.60
2019-03-12T21:49:48.035Z,27.60
2019-03-12T21:52:43.319Z,27.60
2019-03-12T21:55:38.577Z,27.60
2019-03-12T21:58:33.751Z,27.60
2019-03-12T22:01:28.838Z,27.60
2019-03-12T22:04:23.843Z,27.60
2019-03-12T22:07:19.368Z,27.60
2019-03-12T22:10:14.766Z,27.60
2019-03-12T22:13:09.710Z,27.60
2019-03-12T22:16:04.992Z,27.60
2019-03-12T22:19:00.335Z,27.60
2019-03-12T22:22:25.288Z,27.60
2019-03-12T22:25:20.289Z,27.60
2019-03-12T22:28:15.487Z,27.60
2019-03-12T22:31:10.965Z,27.60
2019-03-12T22:34:06.118Z,27.60
2019-03-12T22:37:01.340Z,27.60
2019-03-12T22:39:57.252Z,27.60
2019-03-12T22:42:52.396Z,27.60
2019-03-12T22:45:47.687Z,27.60
2019-03-12T22:48:42.992Z,27.60
2019-03-12T22:51:38.054Z,27.60
2019-03-12T22:54:32.934Z,27.60
2019-03-12T22:57:28.095Z,27.50
2019-03-12T23:00:41.975Z,27.50
2019-03-12T23:03:54.733Z,27.50
2019-03-12T23:07:08.819Z,27.50
2019-03-12T23:10:09.335Z,27.50
2019-03-12T23:13:05.464Z,27.40
2019-03-12T23:16:00.750Z,27.40
2019-03-12T23:18:56.376Z,27.40
2019-03-12T23:21:51.234Z,27.40
2019-03-12T23:24:46.522Z,27.40
2019-03-12T23:27:41.379Z,27.40
2019-03-12T23:30:36.408Z,27.40
2019-03-12T23:33:31.263Z,27.40
2019-03-12T23:36:26.533Z,27.40
2019-03-12T23:39:22.060Z,27.40
2019-03-12T23:42:17.008Z,27.40
2019-03-12T23:45:12.678Z,27.40
2019-03-12T23:48:07.294Z,27.40
2019-03-12T23:51:02.255Z,27.30
2019-03-12T23:53:57.460Z,27.30
2019-03-12T23:56:52.465Z,27.30
2019-03-12T23:59:47.318Z,27.30
